KIOB

Mount Sterling-Montgomery County Airport

Mount Sterling, Kentucky, USA
METAR KIOB 151855Z AUTO 27012G16KT 10SM SCT031 BKN044 00/M06 A3006 RMK AO2
Observed Flight Rules
Dec-15 @ 18:55 UTC (43 minutes ago) Visual Flight Rules
Wind Visibility Clouds
270° at 12 knots
 Gusting to 16 knots
10 miles
  • Scattered at 3,100' AGL
  • Broken at 4,400' AGL
Temperatures Readings
Current 0°C / 32°F
Dewpoint -6°C / 21°F
Humidity 64%
Altimeter 30.06" Hg
Pressure 1018 hPa
Elevation 311
METAR KIOB 151855Z AUTO 27012G16KT 10SM SCT031 BKN044 00/M06 A3006 RMK AO2
Observed Flight Rules
Dec-15 @ 18:55 UTC
(43 minutes ago)
VFR
Wind Visibility
270° at 12 knots
 Gusting to 16 knots
10 miles
Clouds
  • Scattered at 3,100' AGL
  • Broken at 4,400' AGL
Temperature Dewpoint
0°C / 32°F -6°C / 21°F
Humidity Altimeter Pressure
64% 30.06" Hg 1018 hPa